createdAt,value
2022-11-09T00:02:22.479Z,30.07
2022-11-09T00:05:15.429Z,32.30
2022-11-09T00:08:13.895Z,31.80
2022-11-09T00:11:10.834Z,32.17
2022-11-09T00:14:03.180Z,32.40
2022-11-09T00:16:57.060Z,31.07
2022-11-09T00:19:48.678Z,32.00
2022-11-09T00:22:41.121Z,30.77
2022-11-09T00:25:34.503Z,29.73
2022-11-09T00:31:18.494Z,30.60
2022-11-09T00:34:11.096Z,31.90
2022-11-09T00:39:54.393Z,31.17
2022-11-09T00:42:46.711Z,32.42
2022-11-09T00:45:41.852Z,32.50
2022-11-09T00:48:34.265Z,29.80
2022-11-09T00:51:26.965Z,30.90
2022-11-09T00:54:19.307Z,31.30
2022-11-09T00:57:11.458Z,31.87
2022-11-09T01:00:04.353Z,31.97
2022-11-09T01:02:56.243Z,31.25
2022-11-09T01:05:50.901Z,31.63
2022-11-09T01:08:44.322Z,30.90
2022-11-09T01:11:36.713Z,31.55
2022-11-09T01:14:30.025Z,33.47
2022-11-09T01:17:22.630Z,33.37
2022-11-09T01:20:15.484Z,31.03
2022-11-09T01:23:07.706Z,30.77
2022-11-09T01:26:04.545Z,33.57
2022-11-09T01:28:56.718Z,31.80
2022-11-09T01:31:50.561Z,30.17
2022-11-09T01:34:42.610Z,30.08
2022-11-09T01:37:35.033Z,32.60
2022-11-09T01:40:28.362Z,33.48
2022-11-09T01:43:23.206Z,30.97
2022-11-09T01:46:22.169Z,31.43
2022-11-09T01:49:20.890Z,31.40
2022-11-09T01:52:18.647Z,32.20
2022-11-09T01:55:13.540Z,32.73
2022-11-09T01:58:11.569Z,31.77
2022-11-09T02:01:05.319Z,31.93
2022-11-09T02:04:03.194Z,30.40
2022-11-09T02:06:57.977Z,30.83
2022-11-09T02:09:55.879Z,31.83
2022-11-09T02:12:48.626Z,30.93
2022-11-09T02:15:45.675Z,29.90
2022-11-09T02:18:41.013Z,29.93
2022-11-09T02:21:34.077Z,31.47
2022-11-09T02:24:27.315Z,31.07
2022-11-09T02:27:20.159Z,30.80
2022-11-09T02:30:16.425Z,31.13
2022-11-09T02:33:08.356Z,30.10
2022-11-09T02:36:00.182Z,31.30
2022-11-09T02:38:54.362Z,32.42
2022-11-09T02:41:49.859Z,32.73
2022-11-09T02:44:45.192Z,33.30
2022-11-09T02:47:37.108Z,31.80
2022-11-09T02:50:30.979Z,30.60
2022-11-09T02:53:25.062Z,30.73
2022-11-09T02:56:17.933Z,30.57
2022-11-09T02:59:10.756Z,31.83
2022-11-09T03:02:04.433Z,29.60
2022-11-09T03:04:57.055Z,30.90
2022-11-09T03:07:50.335Z,31.83
2022-11-09T03:10:42.981Z,29.93
2022-11-09T03:13:34.778Z,29.98
2022-11-09T03:16:27.457Z,31.55
2022-11-09T03:19:20.098Z,30.50
2022-11-09T03:22:14.144Z,32.57
2022-11-09T03:25:08.173Z,29.63
2022-11-09T03:28:03.909Z,32.80
2022-11-09T03:30:56.312Z,29.47
2022-11-09T03:33:49.269Z,30.23
2022-11-09T03:36:41.502Z,30.20
2022-11-09T03:39:34.155Z,30.60
2022-11-09T03:42:25.977Z,30.60
2022-11-09T03:45:19.545Z,30.48
2022-11-09T03:48:11.983Z,29.67
2022-11-09T03:53:55.640Z,30.73
2022-11-09T03:56:47.982Z,30.12
2022-11-09T03:59:40.007Z,31.10
2022-11-09T04:02:31.843Z,29.95
2022-11-09T04:05:24.166Z,30.55
2022-11-09T04:08:17.332Z,30.23
2022-11-09T04:11:09.567Z,31.47
2022-11-09T04:14:02.009Z,28.87
2022-11-09T04:16:54.817Z,29.45
2022-11-09T04:19:46.696Z,31.40
2022-11-09T04:22:39.741Z,28.63
2022-11-09T04:28:22.807Z,25.97
2022-11-09T04:31:14.463Z,29.00
2022-11-09T04:34:07.104Z,29.00
2022-11-09T04:36:59.516Z,28.07
2022-11-09T04:39:52.130Z,29.90
2022-11-09T04:42:44.011Z,30.68
2022-11-09T04:45:36.892Z,30.12
2022-11-09T04:51:19.234Z,29.40
2022-11-09T04:54:12.085Z,28.30
2022-11-09T04:57:03.907Z,30.20
2022-11-09T04:59:56.352Z,30.15
2022-11-09T05:02:48.275Z,29.55
2022-11-09T05:05:48.000Z,29.23
2022-11-09T05:08:40.919Z,29.67
2022-11-09T05:11:33.998Z,29.50
2022-11-09T05:14:26.044Z,28.63
2022-11-09T05:17:19.193Z,28.77
2022-11-09T05:23:22.446Z,29.63
2022-11-09T05:26:16.685Z,30.53
2022-11-09T05:29:10.577Z,31.43
2022-11-09T05:32:03.011Z,30.50
2022-11-09T05:34:55.267Z,30.75
2022-11-09T05:37:50.495Z,30.50
2022-11-09T05:40:43.161Z,30.03
2022-11-09T05:43:35.445Z,29.80
2022-11-09T05:46:27.363Z,29.72
2022-11-09T05:49:19.837Z,30.02
2022-11-09T05:52:12.321Z,29.23
2022-11-09T05:55:03.951Z,30.90
2022-11-09T05:57:57.558Z,29.87
2022-11-09T06:00:49.975Z,29.95
2022-11-09T06:03:44.487Z,29.97
2022-11-09T06:06:36.414Z,31.13
2022-11-09T06:09:29.193Z,31.23
2022-11-09T06:12:22.705Z,32.25
2022-11-09T06:15:16.476Z,31.00
2022-11-09T06:18:08.505Z,32.60
2022-11-09T06:21:03.363Z,32.07
2022-11-09T06:23:55.839Z,32.23
2022-11-09T06:26:47.732Z,30.60
2022-11-09T06:29:40.525Z,33.38
2022-11-09T06:32:33.106Z,32.70
2022-11-09T06:35:25.814Z,32.45
2022-11-09T06:38:17.636Z,32.77
2022-11-09T06:41:12.702Z,30.90
2022-11-09T06:44:05.806Z,31.07
2022-11-09T06:46:58.041Z,31.20
2022-11-09T06:49:49.864Z,31.50
2022-11-09T06:52:42.307Z,31.40
2022-11-09T06:55:35.552Z,32.40
2022-11-09T06:58:29.469Z,32.90
2022-11-09T07:01:29.076Z,31.90
2022-11-09T07:04:21.081Z,31.63
2022-11-09T07:07:13.344Z,32.63
2022-11-09T07:12:59.926Z,28.33
2022-11-09T07:15:56.600Z,31.00
2022-11-09T07:18:49.204Z,29.70
2022-11-09T07:21:41.681Z,30.20
2022-11-09T07:24:35.100Z,29.00
2022-11-09T07:27:28.406Z,29.02
2022-11-09T07:30:22.458Z,27.93
2022-11-09T07:33:19.440Z,27.83
2022-11-09T07:36:18.249Z,29.87
2022-11-09T07:39:13.229Z,28.90
2022-11-09T07:42:05.549Z,29.90
2022-11-09T07:44:58.066Z,28.17
2022-11-09T07:47:49.821Z,28.07
2022-11-09T07:50:42.776Z,25.27
2022-11-09T07:53:35.168Z,24.60
2022-11-09T07:56:26.931Z,26.63
2022-11-09T07:59:19.578Z,27.32
2022-11-09T08:02:12.856Z,24.20
2022-11-09T08:05:06.164Z,26.40
2022-11-09T08:08:02.336Z,23.17
2022-11-09T08:10:54.876Z,24.03
2022-11-09T08:16:38.043Z,22.97
2022-11-09T08:19:30.350Z,24.87
2022-11-09T08:22:22.792Z,25.90
2022-11-09T08:25:16.799Z,23.20
2022-11-09T08:28:14.524Z,23.57
2022-11-09T08:31:10.739Z,20.97
2022-11-09T08:34:03.165Z,23.13
2022-11-09T08:39:46.245Z,22.50
2022-11-09T08:42:38.988Z,22.57
2022-11-09T08:45:31.536Z,21.83
2022-11-09T08:48:24.599Z,22.40
2022-11-09T08:51:17.647Z,23.00
2022-11-09T08:54:11.728Z,20.73
2022-11-09T08:57:03.554Z,22.10
2022-11-09T09:02:46.583Z,20.10
2022-11-09T09:05:38.830Z,21.15
2022-11-09T09:08:31.275Z,20.93
2022-11-09T09:11:24.124Z,20.23
2022-11-09T09:14:16.572Z,20.83
2022-11-09T09:17:08.763Z,20.50
2022-11-09T09:20:00.627Z,20.45
2022-11-09T09:22:52.473Z,20.43
2022-11-09T09:25:45.150Z,19.85
2022-11-09T09:28:39.138Z,21.27
2022-11-09T09:34:24.600Z,18.57
2022-11-09T09:37:17.561Z,19.83
2022-11-09T09:40:25.805Z,19.03
2022-11-09T09:43:27.555Z,18.23
2022-11-09T09:46:24.857Z,17.90
2022-11-09T09:49:23.745Z,17.07
2022-11-09T09:52:23.025Z,16.80
2022-11-09T09:55:31.335Z,16.80
2022-11-09T09:58:28.664Z,17.00
2022-11-09T10:01:22.483Z,17.45
2022-11-09T10:04:23.278Z,18.00
2022-11-09T10:07:30.210Z,16.30
2022-11-09T10:10:39.032Z,17.00
2022-11-09T10:13:50.378Z,16.90
2022-11-09T10:16:52.381Z,17.43
2022-11-09T10:19:59.567Z,18.00
2022-11-09T10:23:10.033Z,17.90
2022-11-09T10:26:08.915Z,18.53
2022-11-09T10:29:18.540Z,17.57
2022-11-09T10:32:16.573Z,18.50
2022-11-09T10:35:22.190Z,16.77
2022-11-09T10:38:22.520Z,18.30
2022-11-09T10:41:41.275Z,18.50
2022-11-09T10:44:54.280Z,18.00
2022-11-09T10:51:41.956Z,18.23
2022-11-09T10:54:40.334Z,18.37
2022-11-09T10:57:57.689Z,18.63
2022-11-09T11:01:15.631Z,19.77
2022-11-09T11:04:27.738Z,20.00
2022-11-09T11:10:49.188Z,17.83
2022-11-09T11:14:19.967Z,19.00
2022-11-09T11:17:41.118Z,19.10
2022-11-09T11:21:06.102Z,19.10
2022-11-09T11:24:20.097Z,19.53
2022-11-09T11:27:38.290Z,18.57
2022-11-09T11:30:49.239Z,19.30
2022-11-09T11:34:03.630Z,20.13
2022-11-09T11:37:31.392Z,19.13
2022-11-09T11:40:52.299Z,18.63
2022-11-09T11:44:14.876Z,19.33
2022-11-09T11:47:34.156Z,19.25
2022-11-09T11:50:51.950Z,18.53
2022-11-09T11:54:15.462Z,19.43
2022-11-09T11:57:33.155Z,18.90
2022-11-09T12:00:53.858Z,19.10
2022-11-09T12:04:18.045Z,18.27
2022-11-09T12:07:38.096Z,18.70
2022-11-09T12:11:00.271Z,18.27
2022-11-09T12:14:25.480Z,18.82
2022-11-09T12:17:47.207Z,18.33
2022-11-09T12:21:06.683Z,20.95
2022-11-09T12:24:29.230Z,18.30
2022-11-09T12:30:49.526Z,17.20
2022-11-09T12:34:07.791Z,15.67
2022-11-09T12:37:25.017Z,16.33
2022-11-09T12:40:44.492Z,14.80
2022-11-09T12:43:59.667Z,15.40
2022-11-09T12:47:16.794Z,16.73
2022-11-09T12:50:29.755Z,16.00
2022-11-09T12:53:42.366Z,15.83
2022-11-09T12:56:58.169Z,15.48
2022-11-09T13:00:33.965Z,15.53
2022-11-09T13:03:57.635Z,15.67
2022-11-09T13:07:32.884Z,15.18
2022-11-09T13:10:44.531Z,14.77
2022-11-09T13:18:02.453Z,14.90
2022-11-09T13:21:37.916Z,15.23
2022-11-09T13:24:59.924Z,15.60
2022-11-09T13:28:46.430Z,17.52
2022-11-09T13:32:07.095Z,16.93
2022-11-09T13:35:51.596Z,16.53
2022-11-09T13:42:35.004Z,16.93
2022-11-09T13:45:48.493Z,16.47
2022-11-09T13:49:00.726Z,16.77
2022-11-09T13:52:47.402Z,15.90
2022-11-09T13:55:59.146Z,15.33
2022-11-09T13:59:18.665Z,15.80
2022-11-09T14:02:30.735Z,16.63
2022-11-09T14:05:42.082Z,16.00
2022-11-09T14:08:53.444Z,16.60
2022-11-09T14:12:18.380Z,16.17
2022-11-09T14:15:41.608Z,15.23
2022-11-09T14:19:06.211Z,16.23
2022-11-09T14:22:20.366Z,15.13
2022-11-09T14:25:36.965Z,16.07
2022-11-09T14:28:47.903Z,15.73
2022-11-09T14:31:58.760Z,15.60
2022-11-09T14:35:23.338Z,15.60
2022-11-09T14:38:36.800Z,14.27
2022-11-09T14:41:49.017Z,15.70
2022-11-09T14:45:01.174Z,14.80
2022-11-09T14:51:35.083Z,15.13
2022-11-09T14:54:48.972Z,15.67
2022-11-09T14:58:00.714Z,15.67
2022-11-09T15:01:23.265Z,15.20
2022-11-09T15:04:52.366Z,14.67
2022-11-09T15:08:04.103Z,15.93
2022-11-09T15:11:15.954Z,16.30
2022-11-09T15:14:33.283Z,15.63
2022-11-09T15:17:49.207Z,16.03
2022-11-09T15:21:17.259Z,15.17
2022-11-09T15:24:30.736Z,16.03
2022-11-09T15:27:41.417Z,16.73
2022-11-09T15:31:08.503Z,16.83
2022-11-09T15:34:26.238Z,17.60
2022-11-09T15:37:53.784Z,18.53
2022-11-09T15:41:11.229Z,18.57
2022-11-09T15:44:22.417Z,20.00
2022-11-09T15:47:36.925Z,20.65
2022-11-09T15:50:50.317Z,20.13
2022-11-09T15:54:00.724Z,18.93
2022-11-09T15:57:19.529Z,18.23
2022-11-09T16:00:31.633Z,18.30
2022-11-09T16:03:42.960Z,18.67
2022-11-09T16:06:54.006Z,20.27
2022-11-09T16:10:05.966Z,18.60
2022-11-09T16:13:16.397Z,18.83
2022-11-09T16:16:27.495Z,18.30
2022-11-09T16:19:43.352Z,19.00
2022-11-09T16:22:54.751Z,20.93
2022-11-09T16:26:10.209Z,18.43
2022-11-09T16:29:21.982Z,19.13
2022-11-09T16:32:33.461Z,20.80
2022-11-09T16:35:45.289Z,22.03
2022-11-09T16:38:58.734Z,23.02
2022-11-09T16:45:21.787Z,22.77
2022-11-09T16:48:35.959Z,24.40
2022-11-09T16:51:47.099Z,26.37
2022-11-09T16:54:58.799Z,33.07
2022-11-09T16:58:10.869Z,43.68
2022-11-09T17:01:23.661Z,39.93
2022-11-09T17:07:45.560Z,41.67
2022-11-09T17:10:57.266Z,43.23
2022-11-09T17:14:08.042Z,43.40
2022-11-09T17:17:22.653Z,39.53
2022-11-09T17:20:34.785Z,40.57
2022-11-09T17:23:46.601Z,40.17
2022-11-09T17:26:58.559Z,37.40
2022-11-09T17:30:12.354Z,38.97
2022-11-09T17:33:24.915Z,38.17
2022-11-09T17:37:02.321Z,37.75
2022-11-09T17:40:09.570Z,36.63
2022-11-09T17:43:22.244Z,36.70
2022-11-09T17:46:33.080Z,37.73
2022-11-09T17:49:44.350Z,38.30
2022-11-09T17:52:55.322Z,39.23
2022-11-09T17:56:09.888Z,39.83
2022-11-09T17:59:20.348Z,42.07
2022-11-09T18:02:31.835Z,41.97
2022-11-09T18:05:43.741Z,42.20
2022-11-09T18:09:26.800Z,41.92
2022-11-09T18:12:26.692Z,41.50
2022-11-09T18:15:39.681Z,42.13
2022-11-09T18:18:50.310Z,41.77
2022-11-09T18:22:02.977Z,42.30
2022-11-09T18:25:16.235Z,40.43
2022-11-09T18:28:28.041Z,39.97
2022-11-09T18:31:39.145Z,40.77
2022-11-09T18:34:51.019Z,39.33
2022-11-09T18:38:01.978Z,39.53
2022-11-09T18:41:15.589Z,36.97
2022-11-09T18:44:26.692Z,37.70
2022-11-09T18:47:37.785Z,37.40
2022-11-09T18:50:53.777Z,38.00
2022-11-09T18:54:04.661Z,37.33
2022-11-09T18:57:19.647Z,39.13
2022-11-09T19:00:30.543Z,39.87
2022-11-09T19:03:41.789Z,40.73
2022-11-09T19:06:54.533Z,38.77
2022-11-09T19:10:06.802Z,38.93
2022-11-09T19:13:18.916Z,37.40
2022-11-09T19:16:30.640Z,38.20
2022-11-09T19:19:42.487Z,38.03
2022-11-09T19:22:53.363Z,39.13
2022-11-09T19:26:05.327Z,39.27
2022-11-09T19:29:18.100Z,40.57
2022-11-09T19:32:29.924Z,40.23
2022-11-09T19:35:40.946Z,39.43
2022-11-09T19:38:52.895Z,40.10
2022-11-09T19:42:04.640Z,38.07
2022-11-09T19:45:16.023Z,37.30
2022-11-09T19:48:28.665Z,38.70
2022-11-09T19:51:40.638Z,38.13
2022-11-09T19:54:51.612Z,36.87
2022-11-09T19:58:02.589Z,41.27
2022-11-09T20:01:14.939Z,41.00
2022-11-09T20:04:26.366Z,40.03
2022-11-09T20:07:38.121Z,38.47
2022-11-09T20:10:49.401Z,37.93
2022-11-09T20:14:00.437Z,39.63
2022-11-09T20:17:11.176Z,37.43
2022-11-09T20:20:22.399Z,37.33
2022-11-09T20:23:33.862Z,38.23
2022-11-09T20:26:45.565Z,38.97
2022-11-09T20:29:56.970Z,36.97
2022-11-09T20:33:09.786Z,38.95
2022-11-09T20:36:21.463Z,36.93
2022-11-09T20:39:32.948Z,38.43
2022-11-09T20:42:44.080Z,40.00
2022-11-09T20:45:55.171Z,41.13
2022-11-09T20:49:06.588Z,42.23
2022-11-09T20:52:18.569Z,43.40
2022-11-09T20:55:30.647Z,45.97
2022-11-09T20:58:41.750Z,44.83
2022-11-09T21:01:53.537Z,45.70
2022-11-09T21:05:05.256Z,46.33
2022-11-09T21:08:16.336Z,44.63
2022-11-09T21:11:29.088Z,43.87
2022-11-09T21:14:39.822Z,42.93
2022-11-09T21:17:52.745Z,44.60
2022-11-09T21:21:09.777Z,45.28
2022-11-09T21:24:38.550Z,43.87
2022-11-09T21:28:07.038Z,44.40
2022-11-09T21:31:18.388Z,43.07
2022-11-09T21:34:35.390Z,41.70
2022-11-09T21:37:47.909Z,43.10
2022-11-09T21:41:23.502Z,40.23
2022-11-09T21:44:35.223Z,38.80
2022-11-09T21:47:47.138Z,38.20
2022-11-09T21:51:00.724Z,38.50
2022-11-09T21:54:12.490Z,38.80
2022-11-09T21:57:23.661Z,35.77
2022-11-09T22:00:34.537Z,39.23
2022-11-09T22:03:46.600Z,36.73
2022-11-09T22:06:57.685Z,36.93
2022-11-09T22:10:11.770Z,39.77
2022-11-09T22:13:40.087Z,37.67
2022-11-09T22:16:51.271Z,36.50
2022-11-09T22:20:20.465Z,39.33
2022-11-09T22:23:31.726Z,39.43
2022-11-09T22:26:44.057Z,40.78
2022-11-09T22:29:55.076Z,39.00
2022-11-09T22:33:06.468Z,39.60
2022-11-09T22:36:18.740Z,38.93
2022-11-09T22:39:29.594Z,39.87
2022-11-09T22:42:40.960Z,37.93
2022-11-09T22:45:51.956Z,38.03
2022-11-09T22:49:03.033Z,36.65
2022-11-09T22:52:14.974Z,38.87
2022-11-09T22:55:26.500Z,38.40
2022-11-09T22:58:37.130Z,37.00
2022-11-09T23:01:48.306Z,38.30
2022-11-09T23:04:59.922Z,36.53
2022-11-09T23:08:11.248Z,34.83
2022-11-09T23:11:25.113Z,37.13
2022-11-09T23:14:59.709Z,38.00
2022-11-09T23:18:29.641Z,38.17
2022-11-09T23:21:40.938Z,37.60
2022-11-09T23:25:08.989Z,39.43
2022-11-09T23:28:20.987Z,38.75
2022-11-09T23:31:31.776Z,40.70
2022-11-09T23:34:42.866Z,42.40
2022-11-09T23:38:02.413Z,42.70
2022-11-09T23:41:14.473Z,43.80
2022-11-09T23:44:25.564Z,46.83
2022-11-09T23:47:37.588Z,42.20
2022-11-09T23:50:49.548Z,44.03
2022-11-09T23:54:00.551Z,42.13
2022-11-09T23:57:12.076Z,42.67
